Time;durP1;ratioP1;P1;durP2;ratioP2;P2;SDS_P1;SDS_P2;PMS_P1;PMS_P2;Temp;Humidity;BMP_temperature;BMP_pressure;BME280_temperature;BME280_humidity;BME280_pressure;Samples;Min_cycle;Max_cycle;Signal;HPM_P1;HPM_P2
2021/10/18 00:01:43;;;;;;;50.00;31.10;;;;;;;;;;5032976;28;20406;-66
2021/10/18 00:04:09;;;;;;;58.97;30.90;;;;;;;;;;5033425;28;20430;-67
2021/10/18 00:06:35;;;;;;;86.57;30.80;;;;;;;;;;5033629;28;20783;-67
2021/10/18 00:09:02;;;;;;;43.87;28.83;;;;;;;;;;5033132;28;20407;-68
2021/10/18 00:11:28;;;;;;;82.57;30.40;;;;;;;;;;5033122;28;20409;-66
2021/10/18 00:13:54;;;;;;;63.13;31.37;;;;;;;;;;5033005;28;20405;-68
2021/10/18 00:16:20;;;;;;;71.33;32.50;;;;;;;;;;5033393;28;20449;-66
2021/10/18 00:18:47;;;;;;;43.30;28.80;;;;;;;;;;5032902;28;20446;-66
2021/10/18 00:21:13;;;;;;;41.50;29.80;;;;;;;;;;5032970;28;20477;-67
2021/10/18 00:23:39;;;;;;;50.33;30.97;;;;;;;;;;5035346;28;20399;-67
2021/10/18 00:26:05;;;;;;;40.70;29.63;;;;;;;;;;5036750;28;20434;-68
2021/10/18 00:28:31;;;;;;;60.90;30.67;;;;;;;;;;5037158;28;20904;-67
2021/10/18 00:30:58;;;;;;;62.50;29.13;;;;;;;;;;5036824;28;20434;-66
2021/10/18 00:33:24;;;;;;;52.33;30.50;;;;;;;;;;5036872;28;20402;-68
2021/10/18 00:35:50;;;;;;;87.10;30.90;;;;;;;;;;5036706;28;20895;-66
2021/10/18 00:38:16;;;;;;;44.53;27.83;;;;;;;;;;5036906;28;20454;-67
2021/10/18 00:40:42;;;;;;;118.87;32.87;;;;;;;;;;5037213;28;20437;-67
2021/10/18 00:43:08;;;;;;;65.30;29.77;;;;;;;;;;5037232;28;20484;-67
2021/10/18 00:45:34;;;;;;;137.60;34.77;;;;;;;;;;5036784;28;20911;-67
2021/10/18 00:48:01;;;;;;;128.47;31.27;;;;;;;;;;5037053;28;20407;-67
2021/10/18 00:50:27;;;;;;;40.30;27.00;;;;;;;;;;5037114;28;20414;-67
2021/10/18 00:52:54;;;;;;;64.17;29.17;;;;;;;;;;5037334;28;20411;-67
2021/10/18 00:55:20;;;;;;;126.47;30.97;;;;;;;;;;5036894;28;20460;-67
2021/10/18 00:57:46;;;;;;;46.70;28.37;;;;;;;;;;5036807;28;20458;-67
2021/10/18 01:00:13;;;;;;;96.03;29.23;;;;;;;;;;5036764;28;20426;-67
2021/10/18 01:02:39;;;;;;;85.70;29.17;;;;;;;;;;5036970;28;20767;-67
2021/10/18 01:05:06;;;;;;;48.60;26.40;;;;;;;;;;5037083;28;20425;-67
2021/10/18 01:07:32;;;;;;;64.77;30.40;;;;;;;;;;5036783;28;20423;-67
2021/10/18 01:09:58;;;;;;;79.00;28.80;;;;;;;;;;5037210;28;20876;-67
2021/10/18 01:12:24;;;;;;;47.67;26.80;;;;;;;;;;5036556;28;20970;-67
2021/10/18 01:14:50;;;;;;;34.30;25.17;;;;;;;;;;5036687;28;20411;-67
2021/10/18 01:17:17;;;;;;;71.50;27.53;;;;;;;;;;5036739;28;20850;-67
2021/10/18 01:19:43;;;;;;;48.23;23.80;;;;;;;;;;5036680;28;20541;-67
2021/10/18 01:22:09;;;;;;;40.03;25.50;;;;;;;;;;5036301;28;20414;-67
2021/10/18 01:24:36;;;;;;;39.33;26.00;;;;;;;;;;5036359;28;20411;-67
2021/10/18 01:27:02;;;;;;;33.47;22.30;;;;;;;;;;5048904;28;20449;-67
2021/10/18 01:29:36;;;;;;;30.30;23.97;;;;;;;;;;5056338;28;20410;-67
2021/10/18 01:32:03;;;;;;;36.40;23.43;;;;;;;;;;5056874;28;20406;-67
2021/10/18 01:34:29;;;;;;;36.40;23.37;;;;;;;;;;5055642;28;20409;-67
2021/10/18 01:36:59;;;;;;;44.83;24.67;;;;;;;;;;5057019;28;20522;-68
2021/10/18 01:39:25;;;;;;;36.30;24.60;;;;;;;;;;5056903;28;20527;-68
2021/10/18 01:41:51;;;;;;;61.00;27.40;;;;;;;;;;5055572;28;20501;-68
2021/10/18 01:44:18;;;;;;;42.43;25.27;;;;;;;;;;5055784;28;20402;-68
2021/10/18 01:46:44;;;;;;;46.03;26.53;;;;;;;;;;5045307;28;20470;-68
2021/10/18 01:49:10;;;;;;;35.30;25.70;;;;;;;;;;5035234;28;20413;-68
2021/10/18 01:51:36;;;;;;;51.37;27.07;;;;;;;;;;5035797;28;20478;-67
2021/10/18 01:54:02;;;;;;;35.63;23.40;;;;;;;;;;5035749;28;20414;-69
2021/10/18 01:56:31;;;;;;;42.03;26.47;;;;;;;;;;5035307;28;20462;-68
2021/10/18 01:58:57;;;;;;;41.23;26.70;;;;;;;;;;5035237;28;20470;-67
2021/10/18 02:01:23;;;;;;;41.87;25.93;;;;;;;;;;5035296;28;20440;-68
2021/10/18 02:03:49;;;;;;;40.00;25.03;;;;;;;;;;5035347;28;20403;-67
2021/10/18 02:06:15;;;;;;;38.17;25.43;;;;;;;;;;5017362;28;20560;-68
2021/10/18 02:08:41;;;;;;;37.30;24.33;;;;;;;;;;5035109;28;20402;-68
2021/10/18 02:11:07;;;;;;;39.40;24.63;;;;;;;;;;5035016;28;20411;-68
2021/10/18 02:13:33;;;;;;;35.73;25.23;;;;;;;;;;5034971;28;20473;-67
2021/10/18 02:16:00;;;;;;;37.87;23.70;;;;;;;;;;5034964;28;20430;-68
2021/10/18 02:18:26;;;;;;;34.97;23.43;;;;;;;;;;5035045;28;20461;-67
2021/10/18 02:20:59;;;;;;;35.00;23.17;;;;;;;;;;5035184;28;20772;-67
2021/10/18 02:23:25;;;;;;;32.77;23.27;;;;;;;;;;5034834;28;20382;-67
2021/10/18 02:25:51;;;;;;;34.93;24.90;;;;;;;;;;5050745;28;20441;-67
2021/10/18 02:28:17;;;;;;;34.87;24.10;;;;;;;;;;5054789;28;20398;-68
2021/10/18 02:30:43;;;;;;;45.00;25.73;;;;;;;;;;5054465;28;20471;-67
2021/10/18 02:33:09;;;;;;;34.00;22.90;;;;;;;;;;5054616;28;20402;-67
2021/10/18 02:35:35;;;;;;;50.20;26.03;;;;;;;;;;5054528;28;20452;-67
2021/10/18 02:38:01;;;;;;;36.77;26.50;;;;;;;;;;5055063;28;20507;-67
2021/10/18 02:40:27;;;;;;;87.80;28.67;;;;;;;;;;5054438;28;20894;-67
2021/10/18 02:42:53;;;;;;;64.30;27.47;;;;;;;;;;5054367;28;20397;-67
2021/10/18 02:45:19;;;;;;;62.83;27.47;;;;;;;;;;5054218;28;20847;-67
2021/10/18 02:47:45;;;;;;;39.57;26.80;;;;;;;;;;5054207;28;20817;-67
2021/10/18 02:50:11;;;;;;;37.37;24.03;;;;;;;;;;5054092;28;20413;-67
2021/10/18 02:52:37;;;;;;;41.77;25.60;;;;;;;;;;5054324;28;20402;-66
2021/10/18 02:55:04;;;;;;;41.20;24.80;;;;;;;;;;5054433;28;20422;-67
2021/10/18 02:57:30;;;;;;;37.80;24.23;;;;;;;;;;5054011;28;20418;-67
2021/10/18 02:59:56;;;;;;;35.90;25.07;;;;;;;;;;5053947;28;20405;-67
2021/10/18 03:02:22;;;;;;;39.90;24.60;;;;;;;;;;5053976;28;20394;-67
2021/10/18 03:04:48;;;;;;;34.97;25.30;;;;;;;;;;5053856;28;20489;-67
2021/10/18 03:07:14;;;;;;;33.70;22.93;;;;;;;;;;5053810;28;20425;-67
2021/10/18 03:09:40;;;;;;;35.30;24.70;;;;;;;;;;5054131;28;20459;-67
2021/10/18 03:12:07;;;;;;;32.43;24.47;;;;;;;;;;5053938;28;20776;-67
2021/10/18 03:14:33;;;;;;;93.97;27.27;;;;;;;;;;5054130;28;20405;-67
2021/10/18 03:16:59;;;;;;;78.57;26.40;;;;;;;;;;5053616;28;20425;-67
2021/10/18 03:19:25;;;;;;;40.03;24.70;;;;;;;;;;5039929;28;20557;-67
2021/10/18 03:21:51;;;;;;;105.40;28.70;;;;;;;;;;5053866;28;20417;-67
2021/10/18 03:24:17;;;;;;;50.53;25.93;;;;;;;;;;5050049;28;20945;-67
2021/10/18 03:26:43;;;;;;;48.67;24.83;;;;;;;;;;5033670;28;20827;-67
2021/10/18 03:29:09;;;;;;;38.27;25.10;;;;;;;;;;5033702;28;20403;-67
2021/10/18 03:31:35;;;;;;;40.83;25.90;;;;;;;;;;5033263;28;20903;-67
2021/10/18 03:34:01;;;;;;;38.33;24.80;;;;;;;;;;5033730;28;20478;-68
2021/10/18 03:36:27;;;;;;;52.37;27.27;;;;;;;;;;5033585;28;20430;-67
2021/10/18 03:38:53;;;;;;;35.77;23.40;;;;;;;;;;5015956;28;20465;-67
2021/10/18 03:41:19;;;;;;;38.90;26.10;;;;;;;;;;5033551;28;20482;-67
2021/10/18 03:43:45;;;;;;;33.60;23.30;;;;;;;;;;5033385;28;20395;-68
2021/10/18 03:46:11;;;;;;;44.30;25.33;;;;;;;;;;5033149;28;20509;-67
2021/10/18 03:48:37;;;;;;;43.97;26.00;;;;;;;;;;5033606;28;20439;-67
2021/10/18 03:51:03;;;;;;;43.03;27.80;;;;;;;;;;5033232;28;20418;-67
2021/10/18 03:53:29;;;;;;;40.33;26.13;;;;;;;;;;5033494;28;20410;-67
2021/10/18 03:55:55;;;;;;;47.07;25.70;;;;;;;;;;5033121;28;20466;-67
2021/10/18 03:58:22;;;;;;;61.93;28.50;;;;;;;;;;5045856;28;20453;-67
2021/10/18 04:00:48;;;;;;;39.27;25.93;;;;;;;;;;5052924;28;20398;-67
2021/10/18 04:03:14;;;;;;;47.03;25.27;;;;;;;;;;5053073;28;20398;-67
2021/10/18 04:05:40;;;;;;;40.47;26.43;;;;;;;;;;5051713;28;20448;-67
2021/10/18 04:08:06;;;;;;;44.73;24.77;;;;;;;;;;5052892;28;20417;-68
2021/10/18 04:10:32;;;;;;;38.23;26.10;;;;;;;;;;5052981;28;20451;-67
2021/10/18 04:13:00;;;;;;;46.10;26.60;;;;;;;;;;5053207;28;20450;-68
2021/10/18 04:15:26;;;;;;;43.63;26.57;;;;;;;;;;5053053;28;20412;-67
2021/10/18 04:17:52;;;;;;;41.50;26.67;;;;;;;;;;5052999;28;20586;-68
2021/10/18 04:20:18;;;;;;;37.80;25.10;;;;;;;;;;5053280;28;20422;-68
2021/10/18 04:22:46;;;;;;;40.83;26.77;;;;;;;;;;5053218;28;20402;-68
2021/10/18 04:25:13;;;;;;;39.93;27.70;;;;;;;;;;5041891;28;20407;-68
2021/10/18 04:27:39;;;;;;;40.20;27.20;;;;;;;;;;5032826;28;20450;-68
2021/10/18 04:30:05;;;;;;;42.57;27.30;;;;;;;;;;5032883;28;20433;-69
2021/10/18 04:32:31;;;;;;;35.63;25.20;;;;;;;;;;5033137;28;20406;-66
2021/10/18 04:34:57;;;;;;;32.00;23.30;;;;;;;;;;5032833;28;20431;-68
2021/10/18 04:37:23;;;;;;;39.47;25.90;;;;;;;;;;5032631;28;20434;-68
2021/10/18 04:39:49;;;;;;;36.60;25.47;;;;;;;;;;5032837;28;20438;-67
2021/10/18 04:42:15;;;;;;;42.20;26.30;;;;;;;;;;5033026;28;20477;-68
2021/10/18 04:44:42;;;;;;;37.10;24.83;;;;;;;;;;5032847;28;20417;-67
2021/10/18 04:47:08;;;;;;;36.00;24.23;;;;;;;;;;5033557;28;20824;-67
2021/10/18 04:49:34;;;;;;;43.53;25.00;;;;;;;;;;5033848;28;20405;-67
2021/10/18 04:52:00;;;;;;;33.43;21.87;;;;;;;;;;5032897;28;20399;-67
2021/10/18 04:54:26;;;;;;;31.57;22.87;;;;;;;;;;5032468;28;20452;-67
2021/10/18 04:56:52;;;;;;;36.87;23.03;;;;;;;;;;5032413;28;20422;-67
2021/10/18 04:59:18;;;;;;;33.17;23.10;;;;;;;;;;5032456;28;20449;-67
2021/10/18 05:01:44;;;;;;;42.93;23.60;;;;;;;;;;5032540;28;20402;-67
2021/10/18 05:04:10;;;;;;;33.27;22.50;;;;;;;;;;5032691;28;20474;-68
2021/10/18 05:06:36;;;;;;;35.67;24.37;;;;;;;;;;5032202;28;20426;-67
2021/10/18 05:09:02;;;;;;;31.27;21.17;;;;;;;;;;5032667;28;20409;-67
2021/10/18 05:11:28;;;;;;;31.30;21.40;;;;;;;;;;5036159;28;20426;-67
2021/10/18 05:13:54;;;;;;;36.17;24.07;;;;;;;;;;5036370;28;20414;-67
2021/10/18 05:16:20;;;;;;;39.13;24.20;;;;;;;;;;5036157;28;20422;-67
2021/10/18 05:18:46;;;;;;;36.53;24.73;;;;;;;;;;5036338;28;20915;-67
2021/10/18 05:21:13;;;;;;;43.10;22.23;;;;;;;;;;5036168;28;20761;-67
2021/10/18 05:23:39;;;;;;;36.07;23.50;;;;;;;;;;5036233;28;20953;-67
2021/10/18 05:26:05;;;;;;;34.17;22.27;;;;;;;;;;5054230;28;20487;-68
2021/10/18 05:28:31;;;;;;;33.40;22.20;;;;;;;;;;5056256;28;20436;-67
2021/10/18 05:30:57;;;;;;;35.17;23.07;;;;;;;;;;5055852;28;20412;-67
2021/10/18 05:33:23;;;;;;;41.93;25.17;;;;;;;;;;5055831;28;20402;-68
2021/10/18 05:35:49;;;;;;;34.77;22.83;;;;;;;;;;5055765;28;20897;-68
2021/10/18 05:38:19;;;;;;;39.13;24.53;;;;;;;;;;5055681;28;20813;-68
2021/10/18 05:40:45;;;;;;;58.13;25.40;;;;;;;;;;5056200;28;20780;-68
2021/10/18 05:43:11;;;;;;;59.53;26.07;;;;;;;;;;5056145;28;20878;-68
2021/10/18 05:45:37;;;;;;;52.57;28.00;;;;;;;;;;5055313;28;20906;-68
2021/10/18 05:48:04;;;;;;;58.63;28.83;;;;;;;;;;5056126;28;20784;-69
2021/10/18 05:50:35;;;;;;;61.80;27.70;;;;;;;;;;5055610;28;20453;-68
2021/10/18 05:53:01;;;;;;;43.73;26.00;;;;;;;;;;5055901;28;20452;-68
2021/10/18 05:55:27;;;;;;;44.70;26.80;;;;;;;;;;5055424;28;20428;-68
2021/10/18 05:57:55;;;;;;;41.67;27.03;;;;;;;;;;5055079;28;21033;-68
2021/10/18 06:00:22;;;;;;;48.17;28.63;;;;;;;;;;5055779;28;20493;-69
2021/10/18 06:02:48;;;;;;;41.40;26.77;;;;;;;;;;5055643;28;20421;-67
2021/10/18 06:05:14;;;;;;;47.33;28.53;;;;;;;;;;5055605;28;20774;-67
2021/10/18 06:07:40;;;;;;;44.47;25.43;;;;;;;;;;5040450;28;20801;-67
2021/10/18 06:10:08;;;;;;;39.87;26.93;;;;;;;;;;5035227;28;20399;-68
2021/10/18 06:12:34;;;;;;;42.47;26.80;;;;;;;;;;5035447;28;20414;-67
2021/10/18 06:15:00;;;;;;;41.50;27.17;;;;;;;;;;5035185;28;20398;-67
2021/10/18 06:17:26;;;;;;;38.83;25.73;;;;;;;;;;5035198;28;20438;-67
2021/10/18 06:19:52;;;;;;;42.00;26.20;;;;;;;;;;5034837;28;20455;-68
2021/10/18 06:22:18;;;;;;;41.70;26.47;;;;;;;;;;5034679;28;20406;-68
2021/10/18 06:24:44;;;;;;;42.63;27.67;;;;;;;;;;5017678;28;20399;-68
2021/10/18 06:27:10;;;;;;;35.90;25.30;;;;;;;;;;5035198;28;20419;-68
2021/10/18 06:29:37;;;;;;;41.73;28.03;;;;;;;;;;5035164;28;20446;-68
2021/10/18 06:32:03;;;;;;;45.67;27.23;;;;;;;;;;5034919;28;20573;-69
2021/10/18 06:34:29;;;;;;;50.13;32.13;;;;;;;;;;5034975;28;20892;-68
2021/10/18 06:36:55;;;;;;;47.77;29.93;;;;;;;;;;5035355;28;20990;-67
2021/10/18 06:39:21;;;;;;;52.23;28.43;;;;;;;;;;5034934;28;20990;-68
2021/10/18 06:41:47;;;;;;;44.80;28.90;;;;;;;;;;5036134;28;20746;-68
2021/10/18 06:44:13;;;;;;;44.37;28.20;;;;;;;;;;5038765;28;20431;-69
2021/10/18 06:46:39;;;;;;;42.50;27.77;;;;;;;;;;5036517;28;20451;-68
2021/10/18 06:49:05;;;;;;;45.47;28.63;;;;;;;;;;5035620;28;20902;-68
2021/10/18 06:51:35;;;;;;;38.53;26.60;;;;;;;;;;5037262;28;20861;-68
2021/10/18 06:54:01;;;;;;;40.00;26.37;;;;;;;;;;5039222;28;20421;-69
2021/10/18 06:56:28;;;;;;;45.80;26.90;;;;;;;;;;5042408;28;20449;-68
2021/10/18 06:58:54;;;;;;;50.80;29.77;;;;;;;;;;5044222;28;20461;-68
2021/10/18 07:01:20;;;;;;;53.40;28.60;;;;;;;;;;5049518;28;20441;-68
2021/10/18 07:03:46;;;;;;;43.13;25.90;;;;;;;;;;5035842;28;20414;-68
2021/10/18 07:06:12;;;;;;;49.83;28.77;;;;;;;;;;5048311;28;20430;-68
2021/10/18 07:08:38;;;;;;;43.87;27.60;;;;;;;;;;5051210;28;20422;-67
2021/10/18 07:11:04;;;;;;;59.93;28.93;;;;;;;;;;5035575;28;20459;-68
2021/10/18 07:13:30;;;;;;;43.50;27.90;;;;;;;;;;5036357;28;20532;-66
2021/10/18 07:15:56;;;;;;;39.40;25.60;;;;;;;;;;5050692;28;20842;-67
2021/10/18 07:18:22;;;;;;;50.50;28.93;;;;;;;;;;5046432;28;20897;-65
2021/10/18 07:20:48;;;;;;;46.13;26.50;;;;;;;;;;5033124;28;20920;-67
2021/10/18 07:23:14;;;;;;;44.83;25.73;;;;;;;;;;5049129;28;20428;-67
2021/10/18 07:25:42;;;;;;;39.87;25.47;;;;;;;;;;5050109;28;20418;-66
2021/10/18 07:28:09;;;;;;;37.87;24.27;;;;;;;;;;5041966;28;20417;-68
2021/10/18 07:30:36;;;;;;;32.57;20.90;;;;;;;;;;5045968;28;20430;-66
2021/10/18 07:33:02;;;;;;;39.10;21.93;;;;;;;;;;5049207;28;20432;-65
2021/10/18 07:35:32;;;;;;;37.10;20.90;;;;;;;;;;5047544;28;20425;-66
2021/10/18 07:37:59;;;;;;;31.63;18.80;;;;;;;;;;5042299;28;20461;-66
2021/10/18 07:40:25;;;;;;;38.60;24.33;;;;;;;;;;5049756;28;20843;-70
2021/10/18 07:42:52;;;;;;;38.57;24.07;;;;;;;;;;5043549;28;20539;-66
2021/10/18 07:45:18;;;;;;;35.10;23.77;;;;;;;;;;5046870;28;20429;-65
2021/10/18 07:47:44;;;;;;;39.37;24.40;;;;;;;;;;5049774;28;20450;-67
2021/10/18 07:50:11;;;;;;;42.07;22.77;;;;;;;;;;5056903;28;20914;-67
2021/10/18 07:52:43;;;;;;;39.07;24.60;;;;;;;;;;5053924;28;20429;-68
2021/10/18 07:55:30;;;;;;;46.30;24.07;;;;;;;;;;5042341;28;20421;-64
2021/10/18 07:57:59;;;;;;;41.63;25.10;;;;;;;;;;5049111;28;20477;-66
2021/10/18 08:00:25;;;;;;;38.67;22.00;;;;;;;;;;5040457;28;20496;-66
2021/10/18 08:02:51;;;;;;;44.23;22.50;;;;;;;;;;5052034;28;20915;-66
2021/10/18 08:05:17;;;;;;;35.23;20.73;;;;;;;;;;5046619;28;20455;-66
2021/10/18 08:07:49;;;;;;;43.07;23.97;;;;;;;;;;5043626;28;20499;-65
2021/10/18 08:10:23;;;;;;;37.27;21.63;;;;;;;;;;5041428;28;20964;-67
2021/10/18 08:12:49;;;;;;;38.00;22.00;;;;;;;;;;5040138;28;20443;-67
2021/10/18 08:15:15;;;;;;;42.67;21.90;;;;;;;;;;5043997;28;20464;-66
2021/10/18 08:17:41;;;;;;;38.57;22.60;;;;;;;;;;5045906;28;20535;-67
2021/10/18 08:20:08;;;;;;;46.63;24.03;;;;;;;;;;5044796;28;20513;-67
2021/10/18 08:22:34;;;;;;;42.13;22.50;;;;;;;;;;5047690;28;20422;-65
2021/10/18 08:25:00;;;;;;;39.40;22.80;;;;;;;;;;5044054;28;20410;-69
2021/10/18 08:27:26;;;;;;;38.80;23.87;;;;;;;;;;5046277;28;20469;-64
2021/10/18 08:29:52;;;;;;;45.93;24.47;;;;;;;;;;5057179;28;20467;-64
2021/10/18 08:32:18;;;;;;;44.20;25.03;;;;;;;;;;5053313;28;20440;-68
2021/10/18 08:34:44;;;;;;;42.33;24.10;;;;;;;;;;5054751;28;20918;-67
2021/10/18 08:37:10;;;;;;;44.03;24.20;;;;;;;;;;5048820;28;20467;-66
2021/10/18 08:42:18;;;;;;;46.03;24.33;;;;;;;;;;5042228;28;20407;-69
2021/10/18 08:44:44;;;;;;;44.83;25.50;;;;;;;;;;5051295;28;20424;-66
2021/10/18 08:47:12;;;;;;;49.87;25.87;;;;;;;;;;5045220;28;20434;-67
2021/10/18 08:49:38;;;;;;;45.53;24.60;;;;;;;;;;5054341;28;20418;-64
2021/10/18 08:52:05;;;;;;;46.80;26.60;;;;;;;;;;5051609;28;20413;-64
2021/10/18 08:54:31;;;;;;;40.63;24.40;;;;;;;;;;5042080;28;20421;-64
2021/10/18 08:56:57;;;;;;;40.43;24.67;;;;;;;;;;5054060;28;20448;-65
2021/10/18 08:59:27;;;;;;;43.17;25.40;;;;;;;;;;5052749;28;20464;-64
2021/10/18 09:01:55;;;;;;;43.17;25.50;;;;;;;;;;5052757;28;20424;-65
2021/10/18 09:04:26;;;;;;;42.10;23.90;;;;;;;;;;5048469;28;20424;-64
2021/10/18 09:06:52;;;;;;;42.57;26.50;;;;;;;;;;5048594;28;20434;-64
2021/10/18 09:09:23;;;;;;;41.30;25.07;;;;;;;;;;5049456;28;20503;-64
2021/10/18 09:11:49;;;;;;;40.73;22.80;;;;;;;;;;5047485;28;20413;-64
2021/10/18 09:14:16;;;;;;;40.27;24.00;;;;;;;;;;5050706;28;20434;-65
2021/10/18 09:16:43;;;;;;;47.87;28.77;;;;;;;;;;5050018;28;20443;-64
2021/10/18 09:19:11;;;;;;;39.43;25.03;;;;;;;;;;5052341;28;20908;-64
2021/10/18 09:21:56;;;;;;;41.47;24.80;;;;;;;;;;5050758;28;20417;-64
2021/10/18 09:24:31;;;;;;;37.03;24.60;;;;;;;;;;5052859;28;20481;-65
2021/10/18 09:27:01;;;;;;;39.17;23.03;;;;;;;;;;5050352;28;20874;-64
2021/10/18 09:29:39;;;;;;;42.80;24.23;;;;;;;;;;5040212;28;20762;-64
2021/10/18 09:32:05;;;;;;;39.60;25.20;;;;;;;;;;5050369;28;20426;-64
2021/10/18 09:34:35;;;;;;;44.77;25.27;;;;;;;;;;5051322;28;20420;-64
2021/10/18 09:37:09;;;;;;;35.47;22.87;;;;;;;;;;5049171;28;20452;-64
2021/10/18 09:39:38;;;;;;;41.17;26.30;;;;;;;;;;5047997;28;20492;-64
2021/10/18 09:42:05;;;;;;;40.20;25.03;;;;;;;;;;5048809;28;20413;-64
2021/10/18 10:52:38;;;;;;;35.00;24.30;;;;;;;;;;5050320;28;20409;-64
2021/10/18 10:55:23;;;;;;;36.27;24.93;;;;;;;;;;5044135;28;20411;-64
2021/10/18 10:57:52;;;;;;;35.70;22.60;;;;;;;;;;5050813;28;20429;-67
2021/10/18 11:00:36;;;;;;;30.13;21.50;;;;;;;;;;5055735;28;20406;-66
2021/10/18 11:03:21;;;;;;;29.30;22.27;;;;;;;;;;5053233;28;20418;-65
2021/10/18 11:06:04;;;;;;;31.60;20.30;;;;;;;;;;5047016;28;20933;-67
2021/10/18 11:08:36;;;;;;;31.20;20.03;;;;;;;;;;5045592;28;20582;-66
2021/10/18 11:11:23;;;;;;;36.50;22.93;;;;;;;;;;5045740;28;20519;-67
2021/10/18 11:13:50;;;;;;;31.57;21.37;;;;;;;;;;5048086;28;20710;-68
2021/10/18 11:16:18;;;;;;;28.30;21.27;;;;;;;;;;5047125;28;20457;-65
2021/10/18 11:18:47;;;;;;;31.10;21.30;;;;;;;;;;5053136;28;20454;-65
2021/10/18 11:21:14;;;;;;;32.07;20.93;;;;;;;;;;5053289;28;20418;-64
2021/10/18 11:23:59;;;;;;;29.97;20.37;;;;;;;;;;5050163;28;20410;-66
2021/10/18 11:26:26;;;;;;;24.93;18.73;;;;;;;;;;5051403;28;20454;-67
2021/10/18 11:28:56;;;;;;;32.47;22.70;;;;;;;;;;5052503;28;20421;-66
2021/10/18 11:31:29;;;;;;;30.80;21.40;;;;;;;;;;5053774;28;20721;-68
2021/10/18 11:34:01;;;;;;;29.80;22.60;;;;;;;;;;5048748;28;20437;-65
2021/10/18 11:36:27;;;;;;;34.10;22.97;;;;;;;;;;5051307;28;20465;-65
2021/10/18 11:39:13;;;;;;;28.73;20.90;;;;;;;;;;5044917;28;20450;-66
2021/10/18 11:41:58;;;;;;;30.23;20.87;;;;;;;;;;5052020;28;20427;-69
2021/10/18 11:44:42;;;;;;;33.53;21.17;;;;;;;;;;5050867;28;20437;-69
2021/10/18 11:47:27;;;;;;;26.00;20.23;;;;;;;;;;5046807;28;20482;-70
2021/10/18 11:50:12;;;;;;;29.10;20.03;;;;;;;;;;5051895;28;20508;-67
2021/10/18 11:52:56;;;;;;;27.10;20.60;;;;;;;;;;5045204;28;20513;-67
2021/10/18 11:55:26;;;;;;;28.77;18.63;;;;;;;;;;5046657;28;20417;-68
2021/10/18 11:57:54;;;;;;;24.03;17.80;;;16.30;99.90;;;;;;5050752;28;20443;-64
2021/10/18 12:00:22;;;;;;;25.27;17.00;;;12.60;99.90;;;;;;5049320;28;20584;-65
2021/10/18 12:02:48;;;;;;;26.80;18.53;;;12.60;99.90;;;;;;5056832;28;20784;-64
2021/10/18 12:05:16;;;;;;;26.77;16.00;;;12.80;99.90;;;;;;5056084;28;20509;-64
2021/10/18 12:07:48;;;;;;;28.97;18.73;;;12.90;99.90;;;;;;5053391;28;20437;-65
2021/10/18 12:10:14;;;;;;;23.07;16.63;;;12.70;99.90;;;;;;5054700;28;20418;-63
2021/10/18 12:12:40;;;;;;;27.30;19.90;;;12.90;99.90;;;;;;5052923;28;20964;-64
2021/10/18 12:15:07;;;;;;;26.03;17.40;;;13.00;99.90;;;;;;5054816;28;20179;-64
2021/10/18 12:17:34;;;;;;;27.97;19.57;;;13.10;99.90;;;;;;5057514;28;20202;-63
2021/10/18 12:20:04;;;;;;;29.33;19.03;;;13.30;99.90;;;;;;5057076;28;20452;-64
2021/10/18 12:22:30;;;;;;;25.97;18.63;;;13.30;99.90;;;;;;5053057;28;20442;-63
2021/10/18 12:25:03;;;;;;;32.13;21.37;;;13.30;99.90;;;;;;5051040;28;20902;-63
2021/10/18 12:27:28;;;;;;;36.13;22.30;;;13.50;99.90;;;;;;5053401;28;20675;-63
2021/10/18 12:29:54;;;;;;;33.47;19.90;;;13.50;99.90;;;;;;5050451;28;20426;-63
2021/10/18 12:32:20;;;;;;;26.97;21.03;;;13.50;99.90;;;;;;5050400;28;20194;-63
2021/10/18 12:34:46;;;;;;;27.07;19.23;;;13.40;99.90;;;;;;5056546;28;20729;-63
2021/10/18 12:37:13;;;;;;;29.40;21.03;;;13.40;99.90;;;;;;5055652;28;20198;-63
2021/10/18 12:39:53;;;;;;;33.33;23.90;;;13.70;99.90;;;;;;5038717;28;20202;-63
2021/10/18 12:42:27;;;;;;;36.03;22.43;;;13.70;99.90;;;;;;5050032;28;20517;-63
2021/10/18 12:45:05;;;;;;;30.90;22.50;;;13.50;99.90;;;;;;5050823;28;20429;-63
2021/10/18 12:47:31;;;;;;;32.30;21.77;;;13.20;99.90;;;;;;5048128;28;20491;-63
2021/10/18 12:50:08;;;;;;;33.07;22.70;;;13.30;99.90;;;;;;5053691;28;20425;-63
2021/10/18 12:52:39;;;;;;;34.43;23.60;;;13.50;99.90;;;;;;5054637;28;20417;-63
2021/10/18 12:55:22;;;;;;;32.93;21.87;;;13.60;99.90;;;;;;5055101;28;20460;-63
2021/10/18 12:57:49;;;;;;;34.40;24.47;;;13.60;99.90;;;;;;5043625;28;20491;-63
2021/10/18 13:00:27;;;;;;;33.40;23.20;;;13.60;99.90;;;;;;5051637;28;20418;-63
2021/10/18 13:03:13;;;;;;;30.33;21.00;;;13.70;99.90;;;;;;5051495;28;20415;-63
2021/10/18 13:05:46;;;;;;;31.80;22.77;;;13.70;99.90;;;;;;5040365;28;20453;-64
2021/10/18 13:08:17;;;;;;;41.43;24.10;;;13.70;99.90;;;;;;5056083;28;20410;-63
2021/10/18 13:10:45;;;;;;;33.23;22.37;;;13.70;99.90;;;;;;5047955;28;21041;-63
2021/10/18 13:13:13;;;;;;;31.50;23.60;;;13.60;99.90;;;;;;5053100;28;20414;-63
2021/10/18 13:15:40;;;;;;;32.90;23.03;;;13.50;99.90;;;;;;5050074;28;20423;-64
2021/10/18 13:18:07;;;;;;;36.00;24.27;;;13.50;99.90;;;;;;5049675;28;20469;-64
2021/10/18 13:20:33;;;;;;;38.63;25.53;;;13.60;99.90;;;;;;5051533;28;20417;-63
2021/10/18 13:23:02;;;;;;;38.43;24.37;;;13.50;99.90;;;;;;5051272;28;20414;-63
2021/10/18 13:25:33;;;;;;;33.57;23.83;;;13.50;99.90;;;;;;5051478;28;20421;-64
2021/10/18 13:28:00;;;;;;;36.20;25.47;;;13.60;99.90;;;;;;5050715;28;20434;-64
2021/10/18 13:30:26;;;;;;;36.50;24.17;;;13.70;99.90;;;;;;5053862;28;20417;-64
2021/10/18 13:32:54;;;;;;;31.10;21.77;;;13.60;99.90;;;;;;5058452;28;20417;-64
2021/10/18 13:35:21;;;;;;;33.30;23.30;;;13.50;99.90;;;;;;5064148;28;20527;-64
2021/10/18 13:37:47;;;;;;;36.40;24.90;;;13.50;99.90;;;;;;5054441;28;20441;-64
2021/10/18 13:40:14;;;;;;;35.63;24.37;;;13.60;99.90;;;;;;5055338;28;20415;-64
2021/10/18 13:42:42;;;;;;;34.17;23.70;;;13.60;99.90;;;;;;5040103;28;20452;-64
2021/10/18 13:45:09;;;;;;;43.00;25.73;;;13.60;99.90;;;;;;5057951;28;20441;-64
2021/10/18 13:47:35;;;;;;;47.43;28.43;;;13.40;99.90;;;;;;5055752;28;20453;-64
2021/10/18 13:50:01;;;;;;;33.60;24.33;;;13.40;99.90;;;;;;5056950;28;20512;-64
2021/10/18 13:52:27;;;;;;;33.90;23.87;;;13.40;99.90;;;;;;5059300;28;20246;-64
2021/10/18 13:54:52;;;;;;;38.67;22.83;;;13.50;99.90;;;;;;5060265;28;20175;-64
2021/10/18 13:57:21;;;;;;;32.90;23.23;;;13.50;99.90;;;;;;5041555;28;20211;-64
2021/10/18 13:59:47;;;;;;;27.90;20.80;;;13.60;99.90;;;;;;5046744;28;20464;-64
2021/10/18 14:02:16;;;;;;;33.70;23.20;;;13.40;99.90;;;;;;5038889;28;20457;-63
2021/10/18 14:04:43;;;;;;;28.83;21.87;;;13.50;99.90;;;;;;5054721;28;20426;-63
2021/10/18 14:07:09;;;;;;;33.10;23.50;;;13.40;99.90;;;;;;5054000;28;20445;-64
2021/10/18 14:09:36;;;;;;;30.40;21.57;;;13.50;99.90;;;;;;5060210;28;20432;-64
2021/10/18 14:12:03;;;;;;;30.47;21.63;;;13.40;99.90;;;;;;5057528;28;20426;-63
2021/10/18 14:14:29;;;;;;;33.67;23.23;;;13.40;99.90;;;;;;5063250;28;20467;-63
2021/10/18 14:16:55;;;;;;;34.10;24.87;;;13.40;99.90;;;;;;5054585;28;20980;-63
2021/10/18 14:19:21;;;;;;;32.27;23.80;;;13.30;99.90;;;;;;5065808;28;20448;-64
2021/10/18 14:21:46;;;;;;;32.03;22.53;;;13.20;99.90;;;;;;5069260;28;20277;-63
2021/10/18 14:24:12;;;;;;;32.73;20.40;;;13.20;99.90;;;;;;5062466;28;20199;-63
2021/10/18 14:26:38;;;;;;;34.67;23.47;;;13.20;99.90;;;;;;5048180;28;20188;-64
2021/10/18 14:29:05;;;;;;;28.27;20.13;;;13.30;99.90;;;;;;5053000;28;20429;-65
2021/10/18 14:31:31;;;;;;;36.53;23.57;;;13.30;99.90;;;;;;5051546;28;20425;-65
2021/10/18 14:33:57;;;;;;;35.70;24.17;;;13.10;99.90;;;;;;5064989;28;20536;-64
2021/10/18 14:36:23;;;;;;;30.03;23.03;;;13.10;99.90;;;;;;5051810;28;20199;-65
2021/10/18 14:38:53;;;;;;;34.93;23.33;;;13.00;99.90;;;;;;5057689;28;20238;-64
2021/10/18 14:41:21;;;;;;;38.53;23.40;;;13.00;99.90;;;;;;5052054;28;20881;-64
2021/10/18 14:43:48;;;;;;;32.63;22.27;;;13.10;99.90;;;;;;5049368;28;20459;-64
2021/10/18 14:46:13;;;;;;;33.10;21.67;;;13.10;99.90;;;;;;5043916;28;20450;-64
2021/10/18 14:48:39;;;;;;;32.57;22.37;;;13.00;99.90;;;;;;5047055;28;20432;-64
2021/10/18 14:51:05;;;;;;;30.30;22.30;;;13.10;99.90;;;;;;5048330;28;20524;-63
2021/10/18 14:53:31;;;;;;;33.30;23.33;;;13.10;99.90;;;;;;5051310;28;20175;-63
2021/10/18 14:55:56;;;;;;;29.00;22.80;;;13.00;99.90;;;;;;5055152;28;20241;-63
2021/10/18 14:58:22;;;;;;;30.00;21.90;;;13.00;99.90;;;;;;5052194;28;20195;-63
2021/10/18 15:00:48;;;;;;;25.13;19.80;;;13.00;99.90;;;;;;5050456;28;20647;-64
2021/10/18 15:03:13;;;;;;;28.80;21.63;;;12.90;99.90;;;;;;5046401;28;20530;-63